Pen Mar, Pennsylvania
Current Conditions -  °F | °C
As of 7:53 PM on Monday 24 Nov 2014 (Local Time) from KRYT Reporting Station
Clear Clear  
Wind Chill: 64°   Ceiling: Unl
Heat Index: 64°   Visibility: 10mi
Dew Point: 50°   Wind: 10mph
Humidity: 60%   Direction: 230°SW
Pressure: 29.65"   Gusts: 20mph
Location:  39.7777°N, 77.5693°W
Report Text: KRYT 250053Z AUTO 23009G17KT 10SM CLR 18/10 A2965 RMK AO2 SLP035 T01780100 $
Loading
Personal Weather Stations






























Interactive Weather Map New forecast layout! Learn more

10-Day Weather Forecast

Advertisements
Track Severe Weather on mobile